Totland Bay, United Kingdom
Current Conditions -  °F | °C
As of 8:20 PM on Wednesday 28 Jan 2015 (Local Time) from EGHH Reporting Station
Scattered Clouds Scattered Clouds  
Wind Chill: 30°   Ceiling: Unl
Heat Index: 37°   Visibility: 6mi
Dew Point: 32°   Wind: 12mph
Humidity: 81%   Direction: 270°W
Pressure: 29.68"   Gusts: NA
Location:  50.68°N, 1.53°W
Report Text: EGHH 282020Z 27010KT 9999 SCT027 03/00 Q1005
Loading
Personal Weather Stations






























Interactive Weather Map New forecast layout! Learn more

10-Day Weather Forecast

Advertisements
Track Severe Weather on mobile